Aeroboteco Virtual Airline

Aeroboteco Virtual Airlines! Uma nuvem a frente.



 INFORMAÇÕES METEOROLÓGICAS
METAR FOR SBTA
ADDS - METARS form results

(1754 UTC 10 December 2018)
Data provider http://aviationweather.gov/metar/data/
 
METAR text: SBTA 101700Z VRB04KT 9999 SCT040 29/12 Q1020
Conditions at: SBTA (TAUBATE (BASE) , BR) observed 1700 UTC 10 December 2018
Temperature: 29.0°C (84°F)
Dewpoint: 12.0°C (54°F) [RH = 35%]
Pressure (altimeter): 30.12 inches Hg (1020.0 mb)
Winds: variable direction winds at 5 MPH (4 knots; 2.1 m/s)
Visibility: 6 or more miles (10+ km)
Ceiling: at least 12,000 feet AGL
Clouds: scattered clouds at 4000 feet AGL
Weather: no significant weather observed at this time

 MAPA DO AEROPORTO

 INFORMAÇÕES DA PISTA
Pista 8 Tamanho da pista 112 ft Largura da pista 112 ft
Elevação da pista 0 ft Ranhura da pista 0 ft Proa da pista 0
Pista 26 Tamanho da pista 112 ft Largura da pista 112 ft
Elevação da pista 0 ft Ranhura da pista 0 ft Proa da pista 0

 FREQUÊNCIAS DO AEROPORTO
Tipo GND Nome GND Frequência 121.7 MHZ
Tipo TWR Nome TWR Frequência 119.9 MHZ

 AUXÍLIOS DE NAVEGAÇÃO PRÓXIMOS AO AEROPORTO
Tipo NDB Nome Taubate Frequência 430 KHZ